createdAt,value
2019-04-10T00:00:19.118Z,9.80
2019-04-10T00:04:21.075Z,9.30
2019-04-10T00:08:22.142Z,9.40
2019-04-10T00:12:23.377Z,9.40
2019-04-10T00:16:24.521Z,9.70
2019-04-10T00:20:26.721Z,9.40
2019-04-10T00:24:28.171Z,9.60
2019-04-10T00:28:29.652Z,9.40
2019-04-10T00:32:30.585Z,9.40
2019-04-10T00:36:31.488Z,9.00
2019-04-10T00:40:33.232Z,9.60
2019-04-10T00:44:35.403Z,8.90
2019-04-10T00:48:36.347Z,8.40
2019-04-10T00:52:37.199Z,8.70
2019-04-10T00:56:38.960Z,9.00
2019-04-10T01:00:39.856Z,8.30
2019-04-10T01:04:40.782Z,8.30
2019-04-10T01:08:42.738Z,8.30
2019-04-10T01:12:44.075Z,8.80
2019-04-10T01:16:45.098Z,8.70
2019-04-10T01:20:46.020Z,8.20
2019-04-10T01:24:48.016Z,7.80
2019-04-10T01:28:49.227Z,8.20
2019-04-10T01:32:50.373Z,8.60
2019-04-10T01:36:52.111Z,8.40
2019-04-10T01:40:53.303Z,7.80
2019-04-10T01:44:55.051Z,8.80
2019-04-10T01:48:57.435Z,7.90
2019-04-10T01:52:59.568Z,8.10
2019-04-10T01:57:00.622Z,7.90
2019-04-10T02:01:03.912Z,8.50
2019-04-10T02:05:06.157Z,8.10
2019-04-10T02:09:08.184Z,7.90
2019-04-10T02:13:09.428Z,7.80
2019-04-10T02:17:10.584Z,7.70
2019-04-10T02:21:11.628Z,8.00
2019-04-10T02:25:13.788Z,7.40
2019-04-10T02:29:15.574Z,7.50
2019-04-10T02:33:17.830Z,7.30
2019-04-10T02:37:19.255Z,7.40
2019-04-10T02:41:21.603Z,7.90
2019-04-10T02:45:24.033Z,7.50
2019-04-10T02:49:25.238Z,8.20
2019-04-10T02:53:27.511Z,9.40
2019-04-10T02:57:29.460Z,8.80
2019-04-10T03:01:31.560Z,8.40
2019-04-10T03:05:34.474Z,9.50
2019-04-10T03:09:49.655Z,8.70
2019-04-10T03:13:38.693Z,9.20
2019-04-10T03:17:40.095Z,8.30
2019-04-10T03:21:41.234Z,7.80
2019-04-10T03:25:42.095Z,8.00
2019-04-10T03:29:44.873Z,7.60
2019-04-10T03:33:54.156Z,7.80
2019-04-10T03:37:53.556Z,7.40
2019-04-10T03:41:54.649Z,8.80
2019-04-10T03:45:55.711Z,7.10
2019-04-10T03:49:56.592Z,8.80
2019-04-10T03:53:58.417Z,8.70
2019-04-10T03:57:59.412Z,9.60
2019-04-10T04:02:00.311Z,8.00
2019-04-10T04:06:01.624Z,8.10
2019-04-10T04:10:05.182Z,8.40
2019-04-10T04:14:06.248Z,8.10
2019-04-10T04:18:07.251Z,7.80
2019-04-10T04:22:08.332Z,8.80
2019-04-10T04:26:09.252Z,8.10
2019-04-10T04:30:10.573Z,8.90
2019-04-10T04:34:12.257Z,7.20
2019-04-10T04:38:13.454Z,8.90
2019-04-10T04:42:14.903Z,10.40
2019-04-10T04:46:16.199Z,9.50
2019-04-10T04:50:17.819Z,9.40
2019-04-10T04:54:19.158Z,10.20
2019-04-10T04:58:20.362Z,8.20
2019-04-10T05:02:21.968Z,8.40
2019-04-10T05:06:23.025Z,8.30
2019-04-10T05:10:25.209Z,9.10
2019-04-10T05:14:27.208Z,9.00
2019-04-10T05:18:28.218Z,9.40
2019-04-10T05:22:29.091Z,7.30
2019-04-10T05:26:30.051Z,7.30
2019-04-10T05:30:31.397Z,7.50
2019-04-10T05:34:32.421Z,7.50
2019-04-10T05:38:33.425Z,7.20
2019-04-10T05:42:35.256Z,7.60
2019-04-10T05:46:36.766Z,7.80
2019-04-10T05:50:37.884Z,7.70
2019-04-10T05:54:39.541Z,8.30
2019-04-10T05:58:40.885Z,8.50
2019-04-10T06:02:41.965Z,6.60
2019-04-10T06:06:44.007Z,6.40
2019-04-10T06:10:45.707Z,6.60
2019-04-10T06:14:46.692Z,6.60
2019-04-10T06:18:47.570Z,7.10
2019-04-10T06:22:48.449Z,7.40
2019-04-10T06:26:50.118Z,8.20
2019-04-10T06:30:52.279Z,7.10
2019-04-10T06:34:53.382Z,6.70
2019-04-10T06:38:55.103Z,7.60
2019-04-10T06:42:56.917Z,7.40
2019-04-10T06:46:59.949Z,8.50
2019-04-10T06:51:02.068Z,8.00
2019-04-10T06:55:05.032Z,8.60
2019-04-10T06:59:06.654Z,8.00
2019-04-10T07:03:08.576Z,7.70
2019-04-10T07:07:12.941Z,6.90
2019-04-10T07:11:13.489Z,7.30
2019-04-10T07:15:19.143Z,7.60
2019-04-10T07:19:17.804Z,9.30
2019-04-10T07:23:24.139Z,9.90
2019-04-10T07:27:21.849Z,8.70
2019-04-10T07:31:23.477Z,8.60
2019-04-10T07:35:25.653Z,7.50
2019-04-10T07:39:29.504Z,7.60
2019-04-10T07:43:30.656Z,7.80
2019-04-10T07:47:31.739Z,8.30
2019-04-10T07:51:32.629Z,8.10
2019-04-10T07:55:33.504Z,8.00
2019-04-10T07:59:35.260Z,8.40
2019-04-10T08:03:37.403Z,8.60
2019-04-10T08:07:39.291Z,8.40
2019-04-10T08:11:41.470Z,8.70
2019-04-10T08:15:43.371Z,8.80
2019-04-10T08:19:45.264Z,8.80
2019-04-10T08:23:46.512Z,8.20
2019-04-10T08:27:47.591Z,8.20
2019-04-10T08:31:48.596Z,9.00
2019-04-10T08:35:49.590Z,9.20
2019-04-10T08:39:51.385Z,8.70
2019-04-10T08:43:54.440Z,8.40
2019-04-10T08:47:55.570Z,8.20
2019-04-10T08:51:56.469Z,8.00
2019-04-10T08:55:58.794Z,8.50
2019-04-10T09:00:00.406Z,8.60
2019-04-10T09:04:01.606Z,9.20
2019-04-10T09:08:02.605Z,10.10
2019-04-10T09:12:03.587Z,9.70
2019-04-10T09:16:04.622Z,10.50
2019-04-10T09:20:06.651Z,10.90
2019-04-10T09:24:08.173Z,10.40
2019-04-10T09:28:10.464Z,9.90
2019-04-10T09:32:12.576Z,9.80
2019-04-10T09:36:13.549Z,9.70
2019-04-10T09:40:14.576Z,9.70
2019-04-10T09:44:15.505Z,9.50
2019-04-10T09:48:16.615Z,10.30
2019-04-10T09:52:18.679Z,10.10
2019-04-10T09:56:19.816Z,9.90
2019-04-10T10:00:21.706Z,11.10
2019-04-10T10:04:23.592Z,10.40
2019-04-10T10:08:24.865Z,10.70
2019-04-10T10:12:25.810Z,11.50
2019-04-10T10:16:27.265Z,10.90
2019-04-10T10:20:30.744Z,11.30
2019-04-10T10:24:32.878Z,11.00
2019-04-10T10:28:33.918Z,10.80
2019-04-10T10:32:35.134Z,11.50
2019-04-10T10:36:41.549Z,11.30
2019-04-10T10:40:39.440Z,11.20
2019-04-10T10:44:40.599Z,12.10
2019-04-10T10:48:42.031Z,12.20
2019-04-10T10:52:43.812Z,10.90
2019-04-10T10:56:44.955Z,11.10
2019-04-10T11:00:46.034Z,11.30
2019-04-10T11:04:47.509Z,11.40
2019-04-10T11:08:48.589Z,10.70
2019-04-10T11:12:50.721Z,10.70
2019-04-10T11:16:53.708Z,10.70
2019-04-10T11:21:00.720Z,10.60
2019-04-10T11:24:57.620Z,10.80
2019-04-10T11:28:58.676Z,10.70
2019-04-10T11:33:00.062Z,10.80
2019-04-10T11:37:16.606Z,10.70
2019-04-10T11:41:06.366Z,11.60
2019-04-10T11:45:10.246Z,11.60
2019-04-10T11:49:14.336Z,11.30
2019-04-10T11:53:17.279Z,12.10
2019-04-10T11:57:19.814Z,11.20
2019-04-10T12:01:21.619Z,12.40
2019-04-10T12:05:25.244Z,12.00
2019-04-10T12:10:08.237Z,12.20
2019-04-10T12:13:28.317Z,12.70
2019-04-10T12:17:29.780Z,12.70
2019-04-10T12:21:31.611Z,12.10
2019-04-10T12:25:32.692Z,12.50
2019-04-10T12:29:33.617Z,12.30
2019-04-10T12:33:35.815Z,12.80
2019-04-10T12:37:37.191Z,12.40
2019-04-10T12:41:39.238Z,13.50
2019-04-10T12:45:40.732Z,15.00
2019-04-10T12:49:41.603Z,13.20
2019-04-10T12:53:43.533Z,14.10
2019-04-10T12:57:45.436Z,13.00
2019-04-10T13:01:47.028Z,13.70
2019-04-10T13:05:47.970Z,14.30
2019-04-10T13:09:48.872Z,13.90
2019-04-10T13:13:51.217Z,14.20
2019-04-10T13:17:53.160Z,13.40
2019-04-10T13:21:54.174Z,14.30
2019-04-10T13:25:59.817Z,13.90
2019-04-10T13:29:57.976Z,13.60
2019-04-10T13:33:58.861Z,14.00
2019-04-10T13:38:00.915Z,13.90
2019-04-10T13:42:03.055Z,14.50
2019-04-10T13:46:04.665Z,13.60
2019-04-10T13:50:06.601Z,14.00
2019-04-10T13:54:07.702Z,13.20
2019-04-10T13:58:08.891Z,13.40
2019-04-10T14:02:12.973Z,12.90
2019-04-10T14:06:14.269Z,12.80
2019-04-10T14:10:15.788Z,12.50
2019-04-10T14:14:16.863Z,12.80
2019-04-10T14:18:18.564Z,13.90
2019-04-10T14:22:19.773Z,13.50
2019-04-10T14:26:26.630Z,14.40
2019-04-10T14:30:33.493Z,12.70
2019-04-10T14:34:34.753Z,13.10
2019-04-10T14:38:35.934Z,13.20
2019-04-10T14:42:38.262Z,12.30
2019-04-10T14:46:40.071Z,13.00
2019-04-10T14:50:41.997Z,13.20
2019-04-10T14:54:43.939Z,13.40
2019-04-10T14:58:57.703Z,13.60
2019-04-10T15:03:00.058Z,12.60
2019-04-10T15:07:01.803Z,12.60
2019-04-10T15:11:02.951Z,12.20
2019-04-10T15:15:04.835Z,12.60
2019-04-10T15:19:05.702Z,12.90
2019-04-10T15:23:07.741Z,13.70
2019-04-10T15:27:09.242Z,12.90
2019-04-10T15:31:10.995Z,12.30
2019-04-10T15:35:12.600Z,12.40
2019-04-10T15:39:31.399Z,11.80
2019-04-10T15:43:29.773Z,11.50
2019-04-10T15:47:48.794Z,11.50
2019-04-10T15:51:49.737Z,11.60
2019-04-10T15:55:51.664Z,12.00
2019-04-10T15:59:52.811Z,11.90
2019-04-10T16:03:55.743Z,12.40
2019-04-10T16:07:57.154Z,11.70
2019-04-10T16:12:00.478Z,11.40
2019-04-10T16:16:07.207Z,11.60
2019-04-10T16:20:30.545Z,11.60
2019-04-10T16:24:31.524Z,11.60
2019-04-10T16:28:33.560Z,11.20
2019-04-10T16:32:37.006Z,11.50
2019-04-10T16:36:38.367Z,10.70
2019-04-10T16:40:40.452Z,10.50
2019-04-10T16:44:42.324Z,10.20
2019-04-10T16:48:44.375Z,10.00
2019-04-10T16:52:45.500Z,10.60
2019-04-10T16:56:48.578Z,10.10
2019-04-10T17:00:49.982Z,10.40
2019-04-10T17:04:58.818Z,9.90
2019-04-10T17:09:08.965Z,10.20
2019-04-10T17:13:12.131Z,10.20
2019-04-10T17:17:13.215Z,9.90
2019-04-10T17:21:15.175Z,10.30
2019-04-10T17:25:16.295Z,10.10
2019-04-10T17:29:17.785Z,10.30
2019-04-10T17:33:18.806Z,9.90
2019-04-10T17:37:21.278Z,9.70
2019-04-10T17:41:23.851Z,10.00
2019-04-10T17:45:26.253Z,9.70
2019-04-10T17:49:29.694Z,10.20
2019-04-10T17:53:31.529Z,9.80
2019-04-10T17:57:38.371Z,10.10
2019-04-10T18:01:36.724Z,9.70
2019-04-10T18:05:39.131Z,10.00
2019-04-10T18:09:40.962Z,9.60
2019-04-10T18:13:42.779Z,9.40
2019-04-10T18:17:44.012Z,10.00
2019-04-10T18:21:45.870Z,9.70
2019-04-10T18:25:47.026Z,10.40
2019-04-10T18:29:48.091Z,10.00
2019-04-10T18:33:49.109Z,10.20
2019-04-10T18:37:50.087Z,10.00
2019-04-10T18:41:51.962Z,9.70
2019-04-10T18:46:03.332Z,9.10
2019-04-10T18:49:56.043Z,8.90
2019-04-10T18:53:57.601Z,9.30
2019-04-10T18:58:03.264Z,9.80
2019-04-10T19:02:25.447Z,9.60
2019-04-10T19:06:32.192Z,9.50
2019-04-10T19:10:34.604Z,8.60
2019-04-10T19:14:37.118Z,9.00
2019-04-10T19:18:39.491Z,10.10
2019-04-10T19:22:40.872Z,10.20
2019-04-10T19:26:43.225Z,9.40
2019-04-10T19:30:49.134Z,10.80
2019-04-10T19:34:50.260Z,12.00
2019-04-10T19:38:51.759Z,10.90
2019-04-10T19:42:53.450Z,11.50
2019-04-10T19:46:56.331Z,11.60
2019-04-10T19:50:57.502Z,10.50
2019-04-10T19:54:59.662Z,10.80
2019-04-10T19:59:00.799Z,11.00
2019-04-10T20:03:01.940Z,10.10
2019-04-10T20:07:03.058Z,10.40
2019-04-10T20:11:04.132Z,11.10
2019-04-10T20:15:06.875Z,10.50
2019-04-10T20:19:07.764Z,10.30
2019-04-10T20:23:09.692Z,10.70
2019-04-10T20:27:11.995Z,10.80
2019-04-10T20:31:15.311Z,9.60
2019-04-10T20:35:16.349Z,9.10
2019-04-10T20:39:17.489Z,8.00
2019-04-10T20:43:18.603Z,8.80
2019-04-10T20:47:22.525Z,8.50
2019-04-10T20:51:24.860Z,9.10
2019-04-10T20:55:25.905Z,8.70
2019-04-10T20:59:26.852Z,8.70
2019-04-10T21:03:27.772Z,9.10
2019-04-10T21:07:29.837Z,9.50
2019-04-10T21:11:31.367Z,8.60
2019-04-10T21:15:33.347Z,8.80
2019-04-10T21:19:35.386Z,9.60
2019-04-10T21:23:36.460Z,10.00
2019-04-10T21:27:37.670Z,9.50
2019-04-10T21:31:59.048Z,10.10
2019-04-10T21:36:01.804Z,10.40
2019-04-10T21:40:04.039Z,9.70
2019-04-10T21:44:05.015Z,9.80
2019-04-10T21:48:08.515Z,9.10
2019-04-10T21:52:09.828Z,8.80
2019-04-10T21:56:10.779Z,8.60
2019-04-10T22:00:12.360Z,7.80
2019-04-10T22:04:14.644Z,7.70
2019-04-10T22:08:17.680Z,8.10
2019-04-10T22:12:25.900Z,7.90
2019-04-10T22:16:26.255Z,7.90
2019-04-10T22:20:27.673Z,7.90
2019-04-10T22:24:29.838Z,8.20
2019-04-10T22:28:31.005Z,8.40
2019-04-10T22:32:33.078Z,8.40
2019-04-10T22:36:35.247Z,8.10
2019-04-10T22:40:36.363Z,7.30
2019-04-10T22:44:43.384Z,7.50
2019-04-10T22:48:41.530Z,6.90
2019-04-10T22:52:42.564Z,7.50
2019-04-10T22:56:43.437Z,7.10
2019-04-10T23:00:44.449Z,6.40
2019-04-10T23:04:45.309Z,6.60
2019-04-10T23:08:46.174Z,6.60
2019-04-10T23:12:54.922Z,6.30
2019-04-10T23:16:50.510Z,6.40
2019-04-10T23:20:52.182Z,6.80
2019-04-10T23:24:54.078Z,7.60
2019-04-10T23:28:55.932Z,7.80
2019-04-10T23:32:56.902Z,8.20
2019-04-10T23:36:58.327Z,8.50
2019-04-10T23:40:59.587Z,7.70
2019-04-10T23:45:01.598Z,7.00
2019-04-10T23:49:03.911Z,7.00
2019-04-10T23:53:04.970Z,7.50
2019-04-10T23:57:05.808Z,6.30
